createdAt,value
2023-05-22T00:00:04.006Z,77
2023-05-22T00:30:24.925Z,76
2023-05-22T01:00:17.638Z,77
2023-05-22T01:30:20.163Z,75
2023-05-22T02:00:21.217Z,76
2023-05-22T02:30:04.773Z,75
2023-05-22T03:00:06.270Z,74
2023-05-22T03:30:21.619Z,78
2023-05-22T04:30:31.148Z,77
2023-05-22T05:00:11.802Z,80
2023-05-22T05:30:14.978Z,80
2023-05-22T06:00:06.788Z,80
2023-05-22T06:30:11.105Z,75
2023-05-22T07:00:01.401Z,78
2023-05-22T07:30:03.981Z,77
2023-05-22T08:00:25.208Z,75
2023-05-22T08:30:08.810Z,70
2023-05-22T09:00:15.937Z,67
2023-05-22T09:30:18.684Z,61
2023-05-22T10:00:22.681Z,58
2023-05-22T10:30:23.034Z,52
2023-05-22T11:00:04.117Z,48
2023-05-22T11:30:26.903Z,43
2023-05-22T12:00:19.048Z,40
2023-05-22T12:30:09.495Z,47
2023-05-22T13:00:02.943Z,51
2023-05-22T13:30:20.235Z,56
2023-05-22T14:00:11.096Z,46
2023-05-22T14:30:15.764Z,60
2023-05-22T15:00:07.290Z,62
2023-05-22T15:30:09.919Z,62
2023-05-22T16:00:00.699Z,65
2023-05-22T16:30:22.394Z,60
2023-05-22T17:00:25.719Z,59
2023-05-22T17:30:17.268Z,62
2023-05-22T18:30:18.413Z,66
2023-05-22T19:00:10.464Z,68
2023-05-22T19:30:05.064Z,69
2023-05-22T20:00:05.258Z,74
2023-05-22T20:30:21.642Z,75
2023-05-22T21:00:10.792Z,74
2023-05-22T21:30:13.715Z,74
2023-05-22T22:00:05.499Z,77
2023-05-22T23:00:16.206Z,79
2023-05-22T23:30:17.183Z,79
